| Date | Time | Temp. (oF) | Dew Point (oF) | Rel. Hum. (%) | Press. (in.) | Wind Dir. (deg.) | Wind Speed (mph) | Hourly Rainfall (i n.) |
|
|---|---|---|---|---|---|---|---|---|---|
| 1 | 05/09 | 24:00 | 59 | 52 | 78 | 30.05 | 10 | 0 | 0.00 |
| 2 | 05/08 | 23:00 | 59 | 50 | 74 | 30.05 | 10 | 0 | 0.00 |
| 3 | 05/08 | 22:00 | 62 | 51 | 68 | 30.05 | 10 | 0 | 0.00 |
| 4 | 05/08 | 21:00 | 66 | 52 | 63 | 30.06 | 10 | 0 | 0.00 |
| 5 | 05/08 | 20:00 | 71 | 57 | 63 | 30.04 | 10 | 0 | 0.00 |
| 6 | 05/08 | 19:00 | 74 | 58 | 59 | 30.04 | 10 | 2 | 0.00 |
| 7 | 05/08 | 18:00 | 76 | 58 | 54 | 30.03 | 10 | 6 | 0.00 |
| 8 | 05/08 | 17:00 | 76 | 58 | 55 | 30.04 | 330 | 4 | 0.00 |
| 9 | 05/08 | 16:00 | 74 | 57 | 57 | 30.01 | 330 | 4 | 0.00 |
| 10 | 05/08 | 15:00 | 73 | 62 | 69 | 29.98 | 290 | 6 | 0.00 |
| 11 | 05/08 | 14:00 | 72 | 63 | 75 | 29.98 | 310 | 4 | 0.00 |
| 12 | 05/08 | 13:00 | 65 | 62 | 93 | 30.01 | 10 | 1 | 0.00 |
| 13 | 05/08 | 12:00 | 63 | 59 | 89 | 29.99 | 290 | 0 | 0.01 |
| 14 | 05/08 | 11:00 | 63 | 60 | 90 | 30.00 | 120 | 0 | 0.00 |
| 15 | 05/08 | 10:00 | 62 | 59 | 93 | 30.00 | 130 | 2 | 0.00 |
| 16 | 05/08 | 09:00 | 61 | 58 | 93 | 30.01 | 130 | 7 | 0.00 |
| 17 | 05/08 | 08:00 | 60 | 57 | 93 | 30.00 | 140 | 2 | 0.00 |
| 18 | 05/08 | 07:00 | 60 | 57 | 93 | 30.00 | 140 | 0 | 0.00 |
| 19 | 05/08 | 06:00 | 60 | 57 | 92 | 29.99 | 60 | 1 | 0.00 |
| 20 | 05/08 | 05:00 | 60 | 57 | 92 | 30.04 | 270 | 0 | 0.00 |
| 21 | 05/08 | 04:00 | 60 | 57 | 92 | 30.01 | 30 | 0 | 0.00 |
| 22 | 05/08 | 03:00 | 60 | 57 | 92 | 30.04 | 270 | 2 | 0.19 |
| 23 | 05/08 | 02:00 | 61 | 58 | 91 | 30.02 | 250 | 6 | 0.04 |
| 24 | 05/08 | 01:00 | 60 | 57 | 91 | 30.04 | 60 | 0 | 0.00 |